sensor_id;sensor_type;location;lat;lon;timestamp;temperature;humidity
30534;DHT22;17318;52.390;9.754;2022-08-21T00:02:26;19.40;93.00
30534;DHT22;17318;52.390;9.754;2022-08-21T00:04:53;19.40;93.10
30534;DHT22;17318;52.390;9.754;2022-08-21T00:07:20;19.40;93.10
30534;DHT22;17318;52.390;9.754;2022-08-21T00:09:46;19.30;93.10
30534;DHT22;17318;52.390;9.754;2022-08-21T00:12:14;19.20;93.40
30534;DHT22;17318;52.390;9.754;2022-08-21T00:14:39;19.20;93.50
30534;DHT22;17318;52.390;9.754;2022-08-21T00:17:13;19.20;93.60
30534;DHT22;17318;52.390;9.754;2022-08-21T00:19:39;19.20;93.60
30534;DHT22;17318;52.390;9.754;2022-08-21T00:22:06;19.20;93.70
30534;DHT22;17318;52.390;9.754;2022-08-21T00:24:32;19.20;93.90
30534;DHT22;17318;52.390;9.754;2022-08-21T00:26:58;19.20;93.70
30534;DHT22;17318;52.390;9.754;2022-08-21T00:29:24;19.10;93.90
30534;DHT22;17318;52.390;9.754;2022-08-21T00:31:50;19.00;94.20
30534;DHT22;17318;52.390;9.754;2022-08-21T00:34:15;19.00;94.60
30534;DHT22;17318;52.390;9.754;2022-08-21T00:36:41;19.00;94.10
30534;DHT22;17318;52.390;9.754;2022-08-21T00:39:07;18.90;94.30
30534;DHT22;17318;52.390;9.754;2022-08-21T00:41:35;18.90;94.40
30534;DHT22;17318;52.390;9.754;2022-08-21T00:44:01;18.90;94.30
30534;DHT22;17318;52.390;9.754;2022-08-21T00:46:27;18.90;94.30
30534;DHT22;17318;52.390;9.754;2022-08-21T00:48:53;18.90;94.40
30534;DHT22;17318;52.390;9.754;2022-08-21T00:51:55;18.90;94.80
30534;DHT22;17318;52.390;9.754;2022-08-21T00:54:24;18.90;94.50
30534;DHT22;17318;52.390;9.754;2022-08-21T00:56:55;18.80;94.60
30534;DHT22;17318;52.390;9.754;2022-08-21T00:59:23;18.80;94.80
30534;DHT22;17318;52.390;9.754;2022-08-21T01:01:49;18.80;94.90
30534;DHT22;17318;52.390;9.754;2022-08-21T01:04:16;18.80;95.00
30534;DHT22;17318;52.390;9.754;2022-08-21T01:06:42;18.80;95.10
30534;DHT22;17318;52.390;9.754;2022-08-21T01:09:08;18.80;95.10
30534;DHT22;17318;52.390;9.754;2022-08-21T01:11:34;18.80;95.20
30534;DHT22;17318;52.390;9.754;2022-08-21T01:14:00;18.80;95.20
30534;DHT22;17318;52.390;9.754;2022-08-21T01:16:26;18.60;95.50
30534;DHT22;17318;52.390;9.754;2022-08-21T01:18:52;18.60;95.60
30534;DHT22;17318;52.390;9.754;2022-08-21T01:21:24;18.60;95.60
30534;DHT22;17318;52.390;9.754;2022-08-21T01:23:52;18.60;95.60
30534;DHT22;17318;52.390;9.754;2022-08-21T01:26:21;18.50;95.70
30534;DHT22;17318;52.390;9.754;2022-08-21T01:29:16;18.50;95.70
30534;DHT22;17318;52.390;9.754;2022-08-21T01:31:45;18.50;95.90
30534;DHT22;17318;52.390;9.754;2022-08-21T01:34:13;18.50;95.90
30534;DHT22;17318;52.390;9.754;2022-08-21T01:36:44;18.50;95.90
30534;DHT22;17318;52.390;9.754;2022-08-21T01:39:22;18.40;96.00
30534;DHT22;17318;52.390;9.754;2022-08-21T01:42:05;18.40;96.00
30534;DHT22;17318;52.390;9.754;2022-08-21T01:44:35;18.40;96.00
30534;DHT22;17318;52.390;9.754;2022-08-21T01:47:05;18.30;96.10
30534;DHT22;17318;52.390;9.754;2022-08-21T01:49:43;18.30;96.40
30534;DHT22;17318;52.390;9.754;2022-08-21T01:52:09;18.20;96.60
30534;DHT22;17318;52.390;9.754;2022-08-21T01:54:35;18.20;96.60
30534;DHT22;17318;52.390;9.754;2022-08-21T01:57:02;18.20;96.60
30534;DHT22;17318;52.390;9.754;2022-08-21T01:59:29;18.20;96.60
30534;DHT22;17318;52.390;9.754;2022-08-21T02:01:55;18.20;96.70
30534;DHT22;17318;52.390;9.754;2022-08-21T02:04:20;18.10;96.70
30534;DHT22;17318;52.390;9.754;2022-08-21T02:06:46;18.10;96.70
30534;DHT22;17318;52.390;9.754;2022-08-21T02:09:13;18.00;96.80
30534;DHT22;17318;52.390;9.754;2022-08-21T02:11:40;18.00;96.90
30534;DHT22;17318;52.390;9.754;2022-08-21T02:14:35;18.00;97.00
30534;DHT22;17318;52.390;9.754;2022-08-21T02:17:01;17.90;97.10
30534;DHT22;17318;52.390;9.754;2022-08-21T02:19:27;17.90;97.10
30534;DHT22;17318;52.390;9.754;2022-08-21T02:21:59;17.90;97.10
30534;DHT22;17318;52.390;9.754;2022-08-21T02:24:24;17.80;97.20
30534;DHT22;17318;52.390;9.754;2022-08-21T02:27:00;17.80;97.20
30534;DHT22;17318;52.390;9.754;2022-08-21T02:29:28;17.80;97.20
30534;DHT22;17318;52.390;9.754;2022-08-21T02:31:54;17.80;97.30
30534;DHT22;17318;52.390;9.754;2022-08-21T02:34:19;17.70;97.20
30534;DHT22;17318;52.390;9.754;2022-08-21T02:36:45;17.70;97.40
30534;DHT22;17318;52.390;9.754;2022-08-21T02:39:10;17.70;97.40
30534;DHT22;17318;52.390;9.754;2022-08-21T02:41:36;17.60;97.40
30534;DHT22;17318;52.390;9.754;2022-08-21T02:44:02;17.50;97.70
30534;DHT22;17318;52.390;9.754;2022-08-21T02:46:27;17.50;97.70
30534;DHT22;17318;52.390;9.754;2022-08-21T02:48:53;17.50;97.70
30534;DHT22;17318;52.390;9.754;2022-08-21T02:51:19;17.50;97.80
30534;DHT22;17318;52.390;9.754;2022-08-21T02:53:47;17.50;98.10
30534;DHT22;17318;52.390;9.754;2022-08-21T02:56:15;17.40;97.90
30534;DHT22;17318;52.390;9.754;2022-08-21T02:58:48;17.40;98.00
30534;DHT22;17318;52.390;9.754;2022-08-21T03:01:15;17.40;97.90
30534;DHT22;17318;52.390;9.754;2022-08-21T03:03:44;17.30;98.30
30534;DHT22;17318;52.390;9.754;2022-08-21T03:06:12;17.30;98.10
30534;DHT22;17318;52.390;9.754;2022-08-21T03:08:38;17.30;98.00
30534;DHT22;17318;52.390;9.754;2022-08-21T03:11:08;17.30;98.10
30534;DHT22;17318;52.390;9.754;2022-08-21T03:13:34;17.30;98.20
30534;DHT22;17318;52.390;9.754;2022-08-21T03:16:00;17.30;98.10
30534;DHT22;17318;52.390;9.754;2022-08-21T03:18:25;17.30;98.10
30534;DHT22;17318;52.390;9.754;2022-08-21T03:20:51;17.30;98.20
30534;DHT22;17318;52.390;9.754;2022-08-21T03:23:17;17.30;98.10
30534;DHT22;17318;52.390;9.754;2022-08-21T03:25:44;17.30;98.10
30534;DHT22;17318;52.390;9.754;2022-08-21T03:28:14;17.20;98.10
30534;DHT22;17318;52.390;9.754;2022-08-21T03:30:46;17.20;98.20
30534;DHT22;17318;52.390;9.754;2022-08-21T03:33:12;17.20;98.30
30534;DHT22;17318;52.390;9.754;2022-08-21T03:35:37;17.10;98.30
30534;DHT22;17318;52.390;9.754;2022-08-21T03:38:03;17.10;98.50
30534;DHT22;17318;52.390;9.754;2022-08-21T03:40:29;17.10;98.60
30534;DHT22;17318;52.390;9.754;2022-08-21T03:42:54;17.10;98.60
30534;DHT22;17318;52.390;9.754;2022-08-21T03:45:21;17.10;98.50
30534;DHT22;17318;52.390;9.754;2022-08-21T03:47:59;17.20;98.60
30534;DHT22;17318;52.390;9.754;2022-08-21T03:50:28;17.20;98.60
30534;DHT22;17318;52.390;9.754;2022-08-21T03:52:53;17.20;98.70
30534;DHT22;17318;52.390;9.754;2022-08-21T03:55:19;17.20;98.70
30534;DHT22;17318;52.390;9.754;2022-08-21T03:57:45;17.30;98.70
30534;DHT22;17318;52.390;9.754;2022-08-21T04:00:13;17.30;98.70
30534;DHT22;17318;52.390;9.754;2022-08-21T04:02:39;17.40;98.40
30534;DHT22;17318;52.390;9.754;2022-08-21T04:05:06;17.50;98.30
30534;DHT22;17318;52.390;9.754;2022-08-21T04:07:32;17.50;98.30
30534;DHT22;17318;52.390;9.754;2022-08-21T04:09:57;17.50;98.40
30534;DHT22;17318;52.390;9.754;2022-08-21T04:12:23;17.60;98.20
30534;DHT22;17318;52.390;9.754;2022-08-21T04:14:49;17.60;98.40
30534;DHT22;17318;52.390;9.754;2022-08-21T04:17:17;17.70;98.20
30534;DHT22;17318;52.390;9.754;2022-08-21T04:19:43;17.70;98.00
30534;DHT22;17318;52.390;9.754;2022-08-21T04:22:09;17.70;98.20
30534;DHT22;17318;52.390;9.754;2022-08-21T04:24:35;17.80;98.20
30534;DHT22;17318;52.390;9.754;2022-08-21T04:27:01;17.80;98.00
30534;DHT22;17318;52.390;9.754;2022-08-21T04:29:26;17.80;98.20
30534;DHT22;17318;52.390;9.754;2022-08-21T04:31:52;17.80;98.10
30534;DHT22;17318;52.390;9.754;2022-08-21T04:34:18;17.80;98.20
30534;DHT22;17318;52.390;9.754;2022-08-21T04:36:44;17.80;98.10
30534;DHT22;17318;52.390;9.754;2022-08-21T04:39:10;17.90;98.00
30534;DHT22;17318;52.390;9.754;2022-08-21T04:41:35;17.90;98.30
30534;DHT22;17318;52.390;9.754;2022-08-21T04:44:02;18.00;98.10
30534;DHT22;17318;52.390;9.754;2022-08-21T04:46:28;18.00;97.90
30534;DHT22;17318;52.390;9.754;2022-08-21T04:48:54;18.10;97.70
30534;DHT22;17318;52.390;9.754;2022-08-21T04:51:27;18.10;97.80
30534;DHT22;17318;52.390;9.754;2022-08-21T04:54:09;18.10;97.90
30534;DHT22;17318;52.390;9.754;2022-08-21T04:56:41;18.10;97.90
30534;DHT22;17318;52.390;9.754;2022-08-21T04:59:15;18.20;97.70
30534;DHT22;17318;52.390;9.754;2022-08-21T05:01:42;18.20;97.80
30534;DHT22;17318;52.390;9.754;2022-08-21T05:04:11;18.30;97.90
30534;DHT22;17318;52.390;9.754;2022-08-21T05:06:40;18.30;97.90
30534;DHT22;17318;52.390;9.754;2022-08-21T05:09:07;18.30;97.80
30534;DHT22;17318;52.390;9.754;2022-08-21T05:11:34;18.40;97.80
30534;DHT22;17318;52.390;9.754;2022-08-21T05:14:00;18.40;98.00
30534;DHT22;17318;52.390;9.754;2022-08-21T05:16:26;18.40;97.90
30534;DHT22;17318;52.390;9.754;2022-08-21T05:18:52;18.50;97.70
30534;DHT22;17318;52.390;9.754;2022-08-21T05:21:17;18.50;97.40
30534;DHT22;17318;52.390;9.754;2022-08-21T05:23:43;18.50;97.80
30534;DHT22;17318;52.390;9.754;2022-08-21T05:26:09;18.50;98.10
30534;DHT22;17318;52.390;9.754;2022-08-21T05:28:35;18.50;97.90
30534;DHT22;17318;52.390;9.754;2022-08-21T05:31:01;18.50;97.70
30534;DHT22;17318;52.390;9.754;2022-08-21T05:33:26;18.60;97.70
30534;DHT22;17318;52.390;9.754;2022-08-21T05:35:54;18.50;97.70
30534;DHT22;17318;52.390;9.754;2022-08-21T05:38:24;18.60;97.80
30534;DHT22;17318;52.390;9.754;2022-08-21T05:40:50;18.60;97.60
30534;DHT22;17318;52.390;9.754;2022-08-21T05:43:16;18.60;97.60
30534;DHT22;17318;52.390;9.754;2022-08-21T05:45:42;18.60;97.20
30534;DHT22;17318;52.390;9.754;2022-08-21T05:48:12;18.70;97.20
30534;DHT22;17318;52.390;9.754;2022-08-21T05:50:38;18.80;97.30
30534;DHT22;17318;52.390;9.754;2022-08-21T05:53:05;18.80;97.30
30534;DHT22;17318;52.390;9.754;2022-08-21T05:55:31;18.80;97.20
30534;DHT22;17318;52.390;9.754;2022-08-21T05:57:56;18.80;97.30
30534;DHT22;17318;52.390;9.754;2022-08-21T06:00:22;18.90;97.20
30534;DHT22;17318;52.390;9.754;2022-08-21T06:02:49;18.90;97.10
30534;DHT22;17318;52.390;9.754;2022-08-21T06:05:16;18.90;97.20
30534;DHT22;17318;52.390;9.754;2022-08-21T06:07:42;18.90;97.20
30534;DHT22;17318;52.390;9.754;2022-08-21T06:10:09;19.00;97.00
30534;DHT22;17318;52.390;9.754;2022-08-21T06:12:34;19.10;97.00
30534;DHT22;17318;52.390;9.754;2022-08-21T06:15:00;19.00;97.00
30534;DHT22;17318;52.390;9.754;2022-08-21T06:17:26;19.10;96.90
30534;DHT22;17318;52.390;9.754;2022-08-21T06:19:54;19.10;97.30
30534;DHT22;17318;52.390;9.754;2022-08-21T06:22:20;19.10;97.00
30534;DHT22;17318;52.390;9.754;2022-08-21T06:24:46;19.20;97.30
30534;DHT22;17318;52.390;9.754;2022-08-21T06:27:12;19.20;97.00
30534;DHT22;17318;52.390;9.754;2022-08-21T06:29:38;19.20;96.90
30534;DHT22;17318;52.390;9.754;2022-08-21T06:32:04;19.30;96.80
30534;DHT22;17318;52.390;9.754;2022-08-21T06:34:36;19.30;96.80
30534;DHT22;17318;52.390;9.754;2022-08-21T06:37:04;19.40;97.10
30534;DHT22;17318;52.390;9.754;2022-08-21T06:39:30;19.40;96.70
30534;DHT22;17318;52.390;9.754;2022-08-21T06:41:55;19.50;96.60
30534;DHT22;17318;52.390;9.754;2022-08-21T06:44:21;19.50;96.40
30534;DHT22;17318;52.390;9.754;2022-08-21T06:46:47;19.50;96.30
30534;DHT22;17318;52.390;9.754;2022-08-21T06:49:13;19.60;96.30
30534;DHT22;17318;52.390;9.754;2022-08-21T06:51:40;19.60;96.20
30534;DHT22;17318;52.390;9.754;2022-08-21T06:54:06;19.70;96.20
30534;DHT22;17318;52.390;9.754;2022-08-21T06:56:31;19.80;96.10
30534;DHT22;17318;52.390;9.754;2022-08-21T06:58:59;19.80;95.80
30534;DHT22;17318;52.390;9.754;2022-08-21T07:01:26;19.90;95.90
30534;DHT22;17318;52.390;9.754;2022-08-21T07:03:52;19.90;95.60
30534;DHT22;17318;52.390;9.754;2022-08-21T07:06:18;20.00;95.50
30534;DHT22;17318;52.390;9.754;2022-08-21T07:08:43;20.10;95.30
30534;DHT22;17318;52.390;9.754;2022-08-21T07:11:15;20.00;95.30
30534;DHT22;17318;52.390;9.754;2022-08-21T07:13:42;20.10;95.30
30534;DHT22;17318;52.390;9.754;2022-08-21T07:16:08;20.10;95.10
30534;DHT22;17318;52.390;9.754;2022-08-21T07:18:34;20.20;95.00
30534;DHT22;17318;52.390;9.754;2022-08-21T07:21:07;20.20;94.70
30534;DHT22;17318;52.390;9.754;2022-08-21T07:23:36;20.30;94.60
30534;DHT22;17318;52.390;9.754;2022-08-21T07:26:06;20.30;94.60
30534;DHT22;17318;52.390;9.754;2022-08-21T07:28:32;20.40;94.00
30534;DHT22;17318;52.390;9.754;2022-08-21T07:31:01;20.40;93.80
30534;DHT22;17318;52.390;9.754;2022-08-21T07:33:32;20.40;93.60
30534;DHT22;17318;52.390;9.754;2022-08-21T07:35:59;20.50;93.70
30534;DHT22;17318;52.390;9.754;2022-08-21T07:38:25;20.60;93.40
30534;DHT22;17318;52.390;9.754;2022-08-21T07:40:53;20.70;93.00
30534;DHT22;17318;52.390;9.754;2022-08-21T07:43:19;20.70;92.30
30534;DHT22;17318;52.390;9.754;2022-08-21T07:45:47;20.70;92.40
30534;DHT22;17318;52.390;9.754;2022-08-21T07:48:15;20.90;91.90
30534;DHT22;17318;52.390;9.754;2022-08-21T07:50:41;20.90;91.20
30534;DHT22;17318;52.390;9.754;2022-08-21T07:53:07;20.90;91.30
30534;DHT22;17318;52.390;9.754;2022-08-21T07:55:33;21.00;91.40
30534;DHT22;17318;52.390;9.754;2022-08-21T07:57:59;21.20;91.40
30534;DHT22;17318;52.390;9.754;2022-08-21T08:00:26;21.30;91.30
30534;DHT22;17318;52.390;9.754;2022-08-21T08:02:54;21.40;91.30
30534;DHT22;17318;52.390;9.754;2022-08-21T08:05:23;21.40;91.20
30534;DHT22;17318;52.390;9.754;2022-08-21T08:07:50;21.50;91.20
30534;DHT22;17318;52.390;9.754;2022-08-21T08:10:16;21.50;91.00
30534;DHT22;17318;52.390;9.754;2022-08-21T08:12:43;21.60;91.10
30534;DHT22;17318;52.390;9.754;2022-08-21T08:15:12;21.80;91.10
30534;DHT22;17318;52.390;9.754;2022-08-21T08:17:39;22.00;90.90
30534;DHT22;17318;52.390;9.754;2022-08-21T08:20:06;22.20;90.40
30534;DHT22;17318;52.390;9.754;2022-08-21T08:22:34;22.30;88.60
30534;DHT22;17318;52.390;9.754;2022-08-21T08:25:00;22.60;86.90
30534;DHT22;17318;52.390;9.754;2022-08-21T08:27:27;23.00;87.30
30534;DHT22;17318;52.390;9.754;2022-08-21T08:29:53;23.70;83.70
30534;DHT22;17318;52.390;9.754;2022-08-21T08:32:19;24.40;86.10
30534;DHT22;17318;52.390;9.754;2022-08-21T08:34:45;25.40;81.70
30534;DHT22;17318;52.390;9.754;2022-08-21T08:37:12;26.10;77.80
30534;DHT22;17318;52.390;9.754;2022-08-21T08:39:38;26.90;78.20
30534;DHT22;17318;52.390;9.754;2022-08-21T08:44:30;27.20;72.00
30534;DHT22;17318;52.390;9.754;2022-08-21T08:46:56;28.30;72.20
30534;DHT22;17318;52.390;9.754;2022-08-21T08:49:37;28.80;66.90
30534;DHT22;17318;52.390;9.754;2022-08-21T08:52:29;29.50;63.80
30534;DHT22;17318;52.390;9.754;2022-08-21T08:55:20;30.00;64.20
30534;DHT22;17318;52.390;9.754;2022-08-21T08:57:48;30.30;61.20
30534;DHT22;17318;52.390;9.754;2022-08-21T09:00:18;30.80;60.00
30534;DHT22;17318;52.390;9.754;2022-08-21T09:02:45;30.10;58.30
30534;DHT22;17318;52.390;9.754;2022-08-21T09:05:27;30.00;57.90
30534;DHT22;17318;52.390;9.754;2022-08-21T09:13:43;31.60;56.10
30534;DHT22;17318;52.390;9.754;2022-08-21T09:16:29;32.70;55.90
30534;DHT22;17318;52.390;9.754;2022-08-21T09:22:39;34.20;52.40
30534;DHT22;17318;52.390;9.754;2022-08-21T09:25:25;33.00;51.80
30534;DHT22;17318;52.390;9.754;2022-08-21T09:27:51;32.20;50.10
30534;DHT22;17318;52.390;9.754;2022-08-21T09:30:19;33.00;51.20
30534;DHT22;17318;52.390;9.754;2022-08-21T09:32:46;33.70;49.20
30534;DHT22;17318;52.390;9.754;2022-08-21T09:35:20;34.90;50.00
30534;DHT22;17318;52.390;9.754;2022-08-21T09:37:52;34.30;46.70
30534;DHT22;17318;52.390;9.754;2022-08-21T09:45:33;33.20;47.70
30534;DHT22;17318;52.390;9.754;2022-08-21T09:48:18;33.80;47.40
30534;DHT22;17318;52.390;9.754;2022-08-21T09:50:45;33.50;50.40
30534;DHT22;17318;52.390;9.754;2022-08-21T09:53:27;35.10;47.50
30534;DHT22;17318;52.390;9.754;2022-08-21T09:56:16;35.70;45.40
30534;DHT22;17318;52.390;9.754;2022-08-21T09:59:00;35.10;47.10
30534;DHT22;17318;52.390;9.754;2022-08-21T10:01:27;35.50;45.40
30534;DHT22;17318;52.390;9.754;2022-08-21T10:04:07;35.50;45.70
30534;DHT22;17318;52.390;9.754;2022-08-21T10:06:33;35.30;44.30
30534;DHT22;17318;52.390;9.754;2022-08-21T10:11:30;34.40;45.40
30534;DHT22;17318;52.390;9.754;2022-08-21T10:22:06;35.40;44.90
30534;DHT22;17318;52.390;9.754;2022-08-21T10:24:44;33.50;46.70
30534;DHT22;17318;52.390;9.754;2022-08-21T10:27:46;34.00;45.40
30534;DHT22;17318;52.390;9.754;2022-08-21T10:35:56;34.30;44.40
30534;DHT22;17318;52.390;9.754;2022-08-21T10:41:16;34.90;44.40
30534;DHT22;17318;52.390;9.754;2022-08-21T10:46:40;33.20;44.70
30534;DHT22;17318;52.390;9.754;2022-08-21T10:49:37;32.40;44.70
30534;DHT22;17318;52.390;9.754;2022-08-21T10:54:57;31.50;46.30
30534;DHT22;17318;52.390;9.754;2022-08-21T10:57:51;31.20;46.50
30534;DHT22;17318;52.390;9.754;2022-08-21T11:00:22;31.10;46.30
30534;DHT22;17318;52.390;9.754;2022-08-21T11:02:53;31.10;47.40
30534;DHT22;17318;52.390;9.754;2022-08-21T11:05:28;30.80;47.70
30534;DHT22;17318;52.390;9.754;2022-08-21T11:08:02;30.60;47.60
30534;DHT22;17318;52.390;9.754;2022-08-21T11:10:50;29.90;47.30
30534;DHT22;17318;52.390;9.754;2022-08-21T11:16:39;30.30;47.50
30534;DHT22;17318;52.390;9.754;2022-08-21T11:19:27;30.20;48.20
30534;DHT22;17318;52.390;9.754;2022-08-21T11:30:03;29.20;48.70
30534;DHT22;17318;52.390;9.754;2022-08-21T11:43:48;29.00;49.40
30534;DHT22;17318;52.390;9.754;2022-08-21T11:46:20;28.90;49.80
30534;DHT22;17318;52.390;9.754;2022-08-21T12:00:22;28.60;50.40
30534;DHT22;17318;52.390;9.754;2022-08-21T12:02:58;28.70;50.30
30534;DHT22;17318;52.390;9.754;2022-08-21T12:05:42;28.40;50.40
30534;DHT22;17318;52.390;9.754;2022-08-21T12:08:11;28.20;50.30
30534;DHT22;17318;52.390;9.754;2022-08-21T12:10:41;28.10;50.60
30534;DHT22;17318;52.390;9.754;2022-08-21T12:13:21;28.10;50.50
30534;DHT22;17318;52.390;9.754;2022-08-21T12:15:47;28.10;50.40
30534;DHT22;17318;52.390;9.754;2022-08-21T12:18:29;28.00;50.30
30534;DHT22;17318;52.390;9.754;2022-08-21T12:21:03;27.40;50.60
30534;DHT22;17318;52.390;9.754;2022-08-21T12:23:34;27.60;51.00
30534;DHT22;17318;52.390;9.754;2022-08-21T12:28:44;27.70;50.40
30534;DHT22;17318;52.390;9.754;2022-08-21T12:31:51;27.80;50.60
30534;DHT22;17318;52.390;9.754;2022-08-21T12:34:17;27.90;50.30
30534;DHT22;17318;52.390;9.754;2022-08-21T12:37:06;27.80;50.50
30534;DHT22;17318;52.390;9.754;2022-08-21T12:39:35;27.70;50.50
30534;DHT22;17318;52.390;9.754;2022-08-21T12:42:11;27.60;50.30
30534;DHT22;17318;52.390;9.754;2022-08-21T12:44:46;27.50;51.20
30534;DHT22;17318;52.390;9.754;2022-08-21T12:47:27;27.70;51.30
30534;DHT22;17318;52.390;9.754;2022-08-21T12:50:09;27.90;51.00
30534;DHT22;17318;52.390;9.754;2022-08-21T12:52:41;28.00;50.70
30534;DHT22;17318;52.390;9.754;2022-08-21T12:55:14;28.00;50.60
30534;DHT22;17318;52.390;9.754;2022-08-21T12:57:43;27.90;50.40
30534;DHT22;17318;52.390;9.754;2022-08-21T13:00:11;27.90;50.60
30534;DHT22;17318;52.390;9.754;2022-08-21T13:02:42;28.10;50.70
30534;DHT22;17318;52.390;9.754;2022-08-21T13:05:14;28.00;51.20
30534;DHT22;17318;52.390;9.754;2022-08-21T13:07:46;27.90;51.10
30534;DHT22;17318;52.390;9.754;2022-08-21T13:10:29;27.90;51.20
30534;DHT22;17318;52.390;9.754;2022-08-21T13:12:59;27.80;51.00
30534;DHT22;17318;52.390;9.754;2022-08-21T13:15:30;27.90;51.20
30534;DHT22;17318;52.390;9.754;2022-08-21T13:17:56;27.80;51.20
30534;DHT22;17318;52.390;9.754;2022-08-21T13:20:35;27.80;51.40
30534;DHT22;17318;52.390;9.754;2022-08-21T13:23:07;27.60;51.30
30534;DHT22;17318;52.390;9.754;2022-08-21T13:25:37;27.70;51.40
30534;DHT22;17318;52.390;9.754;2022-08-21T13:28:11;27.60;51.00
30534;DHT22;17318;52.390;9.754;2022-08-21T13:30:45;27.80;51.20
30534;DHT22;17318;52.390;9.754;2022-08-21T13:33:14;27.80;51.30
30534;DHT22;17318;52.390;9.754;2022-08-21T13:38:17;27.90;50.80
30534;DHT22;17318;52.390;9.754;2022-08-21T13:41:16;28.00;50.40
30534;DHT22;17318;52.390;9.754;2022-08-21T13:43:48;27.90;50.10
30534;DHT22;17318;52.390;9.754;2022-08-21T13:46:14;27.80;50.20
30534;DHT22;17318;52.390;9.754;2022-08-21T13:48:41;27.80;50.30
30534;DHT22;17318;52.390;9.754;2022-08-21T13:51:11;27.80;50.40
30534;DHT22;17318;52.390;9.754;2022-08-21T13:53:49;27.60;50.40
30534;DHT22;17318;52.390;9.754;2022-08-21T13:56:33;27.60;50.50
30534;DHT22;17318;52.390;9.754;2022-08-21T13:59:06;27.70;51.00
30534;DHT22;17318;52.390;9.754;2022-08-21T14:01:50;27.70;51.00
30534;DHT22;17318;52.390;9.754;2022-08-21T14:04:24;27.70;50.80
30534;DHT22;17318;52.390;9.754;2022-08-21T14:06:51;27.70;51.00
30534;DHT22;17318;52.390;9.754;2022-08-21T14:09:31;27.60;50.80
30534;DHT22;17318;52.390;9.754;2022-08-21T14:11:59;27.70;51.00
30534;DHT22;17318;52.390;9.754;2022-08-21T14:14:29;27.80;50.90
30534;DHT22;17318;52.390;9.754;2022-08-21T14:17:00;27.70;50.70
30534;DHT22;17318;52.390;9.754;2022-08-21T14:19:35;27.80;50.80
30534;DHT22;17318;52.390;9.754;2022-08-21T14:22:28;27.70;51.10
30534;DHT22;17318;52.390;9.754;2022-08-21T14:25:36;27.60;51.20
30534;DHT22;17318;52.390;9.754;2022-08-21T14:30:40;27.40;51.80
30534;DHT22;17318;52.390;9.754;2022-08-21T14:33:12;27.40;51.10
30534;DHT22;17318;52.390;9.754;2022-08-21T14:35:40;27.40;50.80
30534;DHT22;17318;52.390;9.754;2022-08-21T14:38:17;27.40;51.20
30534;DHT22;17318;52.390;9.754;2022-08-21T14:40:49;27.30;50.90
30534;DHT22;17318;52.390;9.754;2022-08-21T14:43:16;27.30;50.90
30534;DHT22;17318;52.390;9.754;2022-08-21T14:45:42;27.20;50.80
30534;DHT22;17318;52.390;9.754;2022-08-21T14:48:09;27.20;51.00
30534;DHT22;17318;52.390;9.754;2022-08-21T14:50:35;27.30;50.90
30534;DHT22;17318;52.390;9.754;2022-08-21T14:53:01;27.30;51.20
30534;DHT22;17318;52.390;9.754;2022-08-21T14:55:27;27.20;51.40
30534;DHT22;17318;52.390;9.754;2022-08-21T14:57:54;27.00;51.40
30534;DHT22;17318;52.390;9.754;2022-08-21T15:00:22;27.00;51.70
30534;DHT22;17318;52.390;9.754;2022-08-21T15:02:49;27.10;52.10
30534;DHT22;17318;52.390;9.754;2022-08-21T15:05:15;27.20;52.50
30534;DHT22;17318;52.390;9.754;2022-08-21T15:07:41;27.20;52.70
30534;DHT22;17318;52.390;9.754;2022-08-21T15:10:07;27.30;52.80
30534;DHT22;17318;52.390;9.754;2022-08-21T15:12:33;27.30;52.40
30534;DHT22;17318;52.390;9.754;2022-08-21T15:14:59;27.00;52.30
30534;DHT22;17318;52.390;9.754;2022-08-21T15:17:25;27.10;52.70
30534;DHT22;17318;52.390;9.754;2022-08-21T15:19:50;27.10;52.30
30534;DHT22;17318;52.390;9.754;2022-08-21T15:22:16;27.20;52.50
30534;DHT22;17318;52.390;9.754;2022-08-21T15:24:42;27.20;52.20
30534;DHT22;17318;52.390;9.754;2022-08-21T15:27:09;27.30;52.60
30534;DHT22;17318;52.390;9.754;2022-08-21T15:29:36;27.30;52.60
30534;DHT22;17318;52.390;9.754;2022-08-21T15:32:26;27.30;52.50
30534;DHT22;17318;52.390;9.754;2022-08-21T15:34:54;27.20;52.30
30534;DHT22;17318;52.390;9.754;2022-08-21T15:37:22;27.10;52.40
30534;DHT22;17318;52.390;9.754;2022-08-21T15:39:49;27.00;52.20
30534;DHT22;17318;52.390;9.754;2022-08-21T15:42:16;27.00;52.20
30534;DHT22;17318;52.390;9.754;2022-08-21T15:44:42;26.90;52.30
30534;DHT22;17318;52.390;9.754;2022-08-21T15:47:15;27.00;52.50
30534;DHT22;17318;52.390;9.754;2022-08-21T15:49:42;27.10;52.50
30534;DHT22;17318;52.390;9.754;2022-08-21T15:52:15;27.10;52.60
30534;DHT22;17318;52.390;9.754;2022-08-21T15:54:41;27.10;52.60
30534;DHT22;17318;52.390;9.754;2022-08-21T15:57:13;27.10;52.80
30534;DHT22;17318;52.390;9.754;2022-08-21T15:59:45;27.00;52.50
30534;DHT22;17318;52.390;9.754;2022-08-21T16:02:32;26.90;52.40
30534;DHT22;17318;52.390;9.754;2022-08-21T16:04:58;26.80;52.60
30534;DHT22;17318;52.390;9.754;2022-08-21T16:07:24;26.80;52.90
30534;DHT22;17318;52.390;9.754;2022-08-21T16:09:50;26.90;53.10
30534;DHT22;17318;52.390;9.754;2022-08-21T16:12:25;26.80;53.00
30534;DHT22;17318;52.390;9.754;2022-08-21T16:14:52;26.80;52.90
30534;DHT22;17318;52.390;9.754;2022-08-21T16:17:19;26.70;52.90
30534;DHT22;17318;52.390;9.754;2022-08-21T16:19:46;26.60;53.40
30534;DHT22;17318;52.390;9.754;2022-08-21T16:22:12;26.60;53.20
30534;DHT22;17318;52.390;9.754;2022-08-21T16:24:37;26.60;53.40
30534;DHT22;17318;52.390;9.754;2022-08-21T16:27:04;26.60;53.60
30534;DHT22;17318;52.390;9.754;2022-08-21T16:29:34;26.50;53.60
30534;DHT22;17318;52.390;9.754;2022-08-21T16:32:01;26.50;53.70
30534;DHT22;17318;52.390;9.754;2022-08-21T16:34:27;26.50;53.70
30534;DHT22;17318;52.390;9.754;2022-08-21T16:36:54;26.50;53.80
30534;DHT22;17318;52.390;9.754;2022-08-21T16:39:19;26.50;54.40
30534;DHT22;17318;52.390;9.754;2022-08-21T16:41:47;26.50;53.90
30534;DHT22;17318;52.390;9.754;2022-08-21T16:44:15;26.50;54.00
30534;DHT22;17318;52.390;9.754;2022-08-21T16:46:42;26.50;53.80
30534;DHT22;17318;52.390;9.754;2022-08-21T16:49:08;26.50;54.10
30534;DHT22;17318;52.390;9.754;2022-08-21T16:51:35;26.50;54.10
30534;DHT22;17318;52.390;9.754;2022-08-21T16:54:01;26.40;53.90
30534;DHT22;17318;52.390;9.754;2022-08-21T16:56:27;26.40;54.20
30534;DHT22;17318;52.390;9.754;2022-08-21T16:58:55;26.40;54.30
30534;DHT22;17318;52.390;9.754;2022-08-21T17:01:24;26.40;54.40
30534;DHT22;17318;52.390;9.754;2022-08-21T17:03:51;26.40;54.30
30534;DHT22;17318;52.390;9.754;2022-08-21T17:06:19;26.30;54.10
30534;DHT22;17318;52.390;9.754;2022-08-21T17:08:45;26.20;54.10
30534;DHT22;17318;52.390;9.754;2022-08-21T17:11:20;26.20;54.30